sensor_id;sensor_type;location;lat;lon;timestamp;P1;durP1;ratioP1;P2;durP2;ratioP2
80578;SDS011;69939;52.402;6.608;2023-11-18T00:01:45;20.88;;;10.05;;
80578;SDS011;69939;52.402;6.608;2023-11-18T00:04:20;18.00;;;9.95;;
80578;SDS011;69939;52.402;6.608;2023-11-18T00:06:49;17.52;;;10.63;;
80578;SDS011;69939;52.402;6.608;2023-11-18T00:09:19;19.63;;;9.55;;
80578;SDS011;69939;52.402;6.608;2023-11-18T00:11:50;16.98;;;8.23;;
80578;SDS011;69939;52.402;6.608;2023-11-18T00:14:25;24.65;;;10.45;;
80578;SDS011;69939;52.402;6.608;2023-11-18T00:16:54;15.60;;;8.63;;
80578;SDS011;69939;52.402;6.608;2023-11-18T00:19:24;17.08;;;8.90;;
80578;SDS011;69939;52.402;6.608;2023-11-18T00:21:53;16.52;;;8.23;;
80578;SDS011;69939;52.402;6.608;2023-11-18T00:24:22;19.65;;;8.60;;
80578;SDS011;69939;52.402;6.608;2023-11-18T00:26:51;24.65;;;8.82;;
80578;SDS011;69939;52.402;6.608;2023-11-18T00:29:27;21.98;;;9.40;;
80578;SDS011;69939;52.402;6.608;2023-11-18T00:31:57;22.83;;;9.85;;
80578;SDS011;69939;52.402;6.608;2023-11-18T00:34:26;21.98;;;8.88;;
80578;SDS011;69939;52.402;6.608;2023-11-18T00:37:02;33.53;;;8.57;;
80578;SDS011;69939;52.402;6.608;2023-11-18T00:39:34;52.47;;;9.93;;
80578;SDS011;69939;52.402;6.608;2023-11-18T00:42:04;23.38;;;8.73;;
80578;SDS011;69939;52.402;6.608;2023-11-18T00:44:36;32.97;;;10.15;;
80578;SDS011;69939;52.402;6.608;2023-11-18T00:47:05;29.23;;;9.82;;
80578;SDS011;69939;52.402;6.608;2023-11-18T00:49:34;20.02;;;9.10;;
80578;SDS011;69939;52.402;6.608;2023-11-18T00:52:07;23.67;;;10.13;;
80578;SDS011;69939;52.402;6.608;2023-11-18T00:54:39;17.20;;;9.82;;
80578;SDS011;69939;52.402;6.608;2023-11-18T00:57:14;20.33;;;8.85;;
80578;SDS011;69939;52.402;6.608;2023-11-18T00:59:45;13.95;;;8.07;;
80578;SDS011;69939;52.402;6.608;2023-11-18T01:04:44;53.85;;;9.43;;
80578;SDS011;69939;52.402;6.608;2023-11-18T01:09:42;17.50;;;8.30;;
80578;SDS011;69939;52.402;6.608;2023-11-18T01:12:18;12.95;;;7.45;;
80578;SDS011;69939;52.402;6.608;2023-11-18T01:14:47;16.42;;;8.10;;
80578;SDS011;69939;52.402;6.608;2023-11-18T01:17:16;14.95;;;7.93;;
80578;SDS011;69939;52.402;6.608;2023-11-18T01:19:47;16.40;;;7.80;;
80578;SDS011;69939;52.402;6.608;2023-11-18T01:22:16;13.48;;;7.15;;
80578;SDS011;69939;52.402;6.608;2023-11-18T01:24:46;12.02;;;6.40;;
80578;SDS011;69939;52.402;6.608;2023-11-18T01:27:20;10.10;;;6.32;;
80578;SDS011;69939;52.402;6.608;2023-11-18T01:29:49;14.52;;;7.10;;
80578;SDS011;69939;52.402;6.608;2023-11-18T01:32:18;30.73;;;7.65;;
80578;SDS011;69939;52.402;6.608;2023-11-18T01:34:49;17.02;;;7.45;;
80578;SDS011;69939;52.402;6.608;2023-11-18T01:37:18;17.00;;;9.40;;
80578;SDS011;69939;52.402;6.608;2023-11-18T01:39:49;12.10;;;6.15;;
80578;SDS011;69939;52.402;6.608;2023-11-18T01:42:24;18.48;;;9.02;;
80578;SDS011;69939;52.402;6.608;2023-11-18T01:44:56;14.82;;;8.13;;
80578;SDS011;69939;52.402;6.608;2023-11-18T01:47:28;17.10;;;7.20;;
80578;SDS011;69939;52.402;6.608;2023-11-18T01:49:59;14.32;;;6.82;;
80578;SDS011;69939;52.402;6.608;2023-11-18T01:52:31;26.45;;;7.60;;
80578;SDS011;69939;52.402;6.608;2023-11-18T01:55:01;35.55;;;8.88;;
80578;SDS011;69939;52.402;6.608;2023-11-18T01:57:34;14.48;;;7.32;;
80578;SDS011;69939;52.402;6.608;2023-11-18T02:00:05;31.33;;;7.88;;
80578;SDS011;69939;52.402;6.608;2023-11-18T02:02:38;14.45;;;8.77;;
80578;SDS011;69939;52.402;6.608;2023-11-18T02:05:08;14.25;;;6.07;;
80578;SDS011;69939;52.402;6.608;2023-11-18T02:07:38;16.55;;;9.18;;
80578;SDS011;69939;52.402;6.608;2023-11-18T02:10:08;15.38;;;8.98;;
80578;SDS011;69939;52.402;6.608;2023-11-18T02:12:46;12.10;;;5.57;;
80578;SDS011;69939;52.402;6.608;2023-11-18T02:15:26;13.10;;;5.85;;
80578;SDS011;69939;52.402;6.608;2023-11-18T02:17:59;11.55;;;7.00;;
80578;SDS011;69939;52.402;6.608;2023-11-18T02:20:34;17.02;;;7.35;;
80578;SDS011;69939;52.402;6.608;2023-11-18T02:23:06;14.23;;;6.18;;
80578;SDS011;69939;52.402;6.608;2023-11-18T02:25:42;18.45;;;7.68;;
80578;SDS011;69939;52.402;6.608;2023-11-18T02:28:16;15.65;;;7.85;;
80578;SDS011;69939;52.402;6.608;2023-11-18T02:30:46;16.02;;;8.43;;
80578;SDS011;69939;52.402;6.608;2023-11-18T02:33:24;20.52;;;9.82;;
80578;SDS011;69939;52.402;6.608;2023-11-18T02:36:07;16.02;;;8.73;;
80578;SDS011;69939;52.402;6.608;2023-11-18T02:38:51;19.70;;;8.55;;
80578;SDS011;69939;52.402;6.608;2023-11-18T02:41:23;19.52;;;9.65;;
80578;SDS011;69939;52.402;6.608;2023-11-18T02:43:56;16.35;;;8.27;;
80578;SDS011;69939;52.402;6.608;2023-11-18T02:48:56;12.13;;;7.10;;
80578;SDS011;69939;52.402;6.608;2023-11-18T02:51:25;18.85;;;8.90;;
80578;SDS011;69939;52.402;6.608;2023-11-18T02:53:57;13.13;;;6.70;;
80578;SDS011;69939;52.402;6.608;2023-11-18T02:56:31;9.07;;;4.70;;
80578;SDS011;69939;52.402;6.608;2023-11-18T03:01:32;9.20;;;6.68;;
80578;SDS011;69939;52.402;6.608;2023-11-18T03:04:08;15.75;;;7.82;;
80578;SDS011;69939;52.402;6.608;2023-11-18T03:06:39;13.80;;;8.02;;
80578;SDS011;69939;52.402;6.608;2023-11-18T03:09:08;13.02;;;7.65;;
80578;SDS011;69939;52.402;6.608;2023-11-18T03:11:40;15.43;;;8.00;;
80578;SDS011;69939;52.402;6.608;2023-11-18T03:14:09;14.95;;;8.75;;
80578;SDS011;69939;52.402;6.608;2023-11-18T03:16:45;19.27;;;8.50;;
80578;SDS011;69939;52.402;6.608;2023-11-18T03:19:15;20.85;;;9.63;;
80578;SDS011;69939;52.402;6.608;2023-11-18T03:21:52;16.95;;;8.38;;
80578;SDS011;69939;52.402;6.608;2023-11-18T03:24:21;12.88;;;7.07;;
80578;SDS011;69939;52.402;6.608;2023-11-18T03:26:50;15.55;;;7.90;;
80578;SDS011;69939;52.402;6.608;2023-11-18T03:29:22;14.60;;;8.65;;
80578;SDS011;69939;52.402;6.608;2023-11-18T03:31:54;14.32;;;7.60;;
80578;SDS011;69939;52.402;6.608;2023-11-18T03:34:24;16.05;;;9.02;;
80578;SDS011;69939;52.402;6.608;2023-11-18T03:37:00;22.95;;;10.80;;
80578;SDS011;69939;52.402;6.608;2023-11-18T03:39:29;20.15;;;9.32;;
80578;SDS011;69939;52.402;6.608;2023-11-18T03:41:59;17.95;;;10.20;;
80578;SDS011;69939;52.402;6.608;2023-11-18T03:44:28;22.23;;;9.85;;
80578;SDS011;69939;52.402;6.608;2023-11-18T03:46:58;22.55;;;10.77;;
80578;SDS011;69939;52.402;6.608;2023-11-18T03:49:28;20.98;;;10.13;;
80578;SDS011;69939;52.402;6.608;2023-11-18T03:52:00;20.00;;;8.07;;
80578;SDS011;69939;52.402;6.608;2023-11-18T03:54:30;12.77;;;7.50;;
80578;SDS011;69939;52.402;6.608;2023-11-18T03:57:00;14.27;;;7.82;;
80578;SDS011;69939;52.402;6.608;2023-11-18T03:59:35;20.55;;;9.80;;
80578;SDS011;69939;52.402;6.608;2023-11-18T04:02:04;17.42;;;9.07;;
80578;SDS011;69939;52.402;6.608;2023-11-18T04:04:34;22.73;;;9.05;;
80578;SDS011;69939;52.402;6.608;2023-11-18T04:07:09;19.52;;;9.45;;
80578;SDS011;69939;52.402;6.608;2023-11-18T04:09:38;21.80;;;9.63;;
80578;SDS011;69939;52.402;6.608;2023-11-18T04:12:09;15.43;;;8.73;;
80578;SDS011;69939;52.402;6.608;2023-11-18T04:14:39;13.75;;;6.63;;
80578;SDS011;69939;52.402;6.608;2023-11-18T04:19:37;16.10;;;8.50;;
80578;SDS011;69939;52.402;6.608;2023-11-18T04:22:09;16.77;;;8.55;;
80578;SDS011;69939;52.402;6.608;2023-11-18T04:24:38;19.17;;;9.93;;
80578;SDS011;69939;52.402;6.608;2023-11-18T04:27:14;22.88;;;10.13;;
80578;SDS011;69939;52.402;6.608;2023-11-18T04:29:43;21.65;;;10.15;;
80578;SDS011;69939;52.402;6.608;2023-11-18T04:34:41;18.10;;;8.20;;
80578;SDS011;69939;52.402;6.608;2023-11-18T04:37:11;17.23;;;8.98;;
80578;SDS011;69939;52.402;6.608;2023-11-18T04:39:40;15.02;;;7.07;;
80578;SDS011;69939;52.402;6.608;2023-11-18T04:42:09;18.77;;;8.63;;
80578;SDS011;69939;52.402;6.608;2023-11-18T04:44:42;20.27;;;9.02;;
80578;SDS011;69939;52.402;6.608;2023-11-18T04:47:11;19.95;;;8.98;;
80578;SDS011;69939;52.402;6.608;2023-11-18T04:49:41;18.73;;;9.30;;
80578;SDS011;69939;52.402;6.608;2023-11-18T04:52:10;20.85;;;10.10;;
80578;SDS011;69939;52.402;6.608;2023-11-18T04:54:39;18.92;;;9.73;;
80578;SDS011;69939;52.402;6.608;2023-11-18T04:57:09;24.08;;;8.93;;
80578;SDS011;69939;52.402;6.608;2023-11-18T04:59:42;20.85;;;8.75;;
80578;SDS011;69939;52.402;6.608;2023-11-18T05:02:11;22.33;;;9.77;;
80578;SDS011;69939;52.402;6.608;2023-11-18T05:04:46;23.23;;;11.07;;
80578;SDS011;69939;52.402;6.608;2023-11-18T05:07:16;19.52;;;10.93;;
80578;SDS011;69939;52.402;6.608;2023-11-18T05:09:46;32.80;;;11.57;;
80578;SDS011;69939;52.402;6.608;2023-11-18T05:12:15;23.08;;;10.93;;
80578;SDS011;69939;52.402;6.608;2023-11-18T05:14:44;26.85;;;11.98;;
80578;SDS011;69939;52.402;6.608;2023-11-18T05:17:15;16.20;;;9.32;;
80578;SDS011;69939;52.402;6.608;2023-11-18T05:19:47;21.85;;;9.38;;
80578;SDS011;69939;52.402;6.608;2023-11-18T05:22:16;24.75;;;12.70;;
80578;SDS011;69939;52.402;6.608;2023-11-18T05:24:45;23.15;;;10.35;;
80578;SDS011;69939;52.402;6.608;2023-11-18T05:27:15;21.95;;;9.93;;
80578;SDS011;69939;52.402;6.608;2023-11-18T05:29:45;26.02;;;9.95;;
80578;SDS011;69939;52.402;6.608;2023-11-18T05:32:19;19.77;;;10.45;;
80578;SDS011;69939;52.402;6.608;2023-11-18T05:34:51;22.30;;;11.48;;
80578;SDS011;69939;52.402;6.608;2023-11-18T05:37:22;22.92;;;11.93;;
80578;SDS011;69939;52.402;6.608;2023-11-18T05:39:58;30.02;;;12.90;;
80578;SDS011;69939;52.402;6.608;2023-11-18T05:42:34;31.33;;;12.93;;
80578;SDS011;69939;52.402;6.608;2023-11-18T05:45:07;25.27;;;11.15;;
80578;SDS011;69939;52.402;6.608;2023-11-18T05:47:43;20.20;;;11.05;;
80578;SDS011;69939;52.402;6.608;2023-11-18T05:50:12;21.50;;;11.82;;
80578;SDS011;69939;52.402;6.608;2023-11-18T05:52:43;22.88;;;12.30;;
80578;SDS011;69939;52.402;6.608;2023-11-18T05:55:15;31.30;;;11.63;;
80578;SDS011;69939;52.402;6.608;2023-11-18T05:57:46;31.95;;;14.25;;
80578;SDS011;69939;52.402;6.608;2023-11-18T06:00:17;26.92;;;13.13;;
80578;SDS011;69939;52.402;6.608;2023-11-18T06:05:16;26.35;;;11.25;;
80578;SDS011;69939;52.402;6.608;2023-11-18T06:07:51;21.77;;;11.15;;
80578;SDS011;69939;52.402;6.608;2023-11-18T06:10:23;27.58;;;12.38;;
80578;SDS011;69939;52.402;6.608;2023-11-18T06:12:53;25.88;;;12.00;;
80578;SDS011;69939;52.402;6.608;2023-11-18T06:15:23;32.70;;;13.85;;
80578;SDS011;69939;52.402;6.608;2023-11-18T06:17:52;21.30;;;10.82;;
80578;SDS011;69939;52.402;6.608;2023-11-18T06:20:22;31.23;;;13.35;;
80578;SDS011;69939;52.402;6.608;2023-11-18T06:22:51;32.10;;;13.43;;
80578;SDS011;69939;52.402;6.608;2023-11-18T06:25:18;28.52;;;13.27;;
80578;SDS011;69939;52.402;6.608;2023-11-18T06:27:53;20.50;;;10.60;;
80578;SDS011;69939;52.402;6.608;2023-11-18T06:30:23;32.35;;;12.45;;
80578;SDS011;69939;52.402;6.608;2023-11-18T06:32:53;37.90;;;13.30;;
80578;SDS011;69939;52.402;6.608;2023-11-18T06:35:22;28.48;;;13.45;;
80578;SDS011;69939;52.402;6.608;2023-11-18T06:37:52;36.28;;;14.70;;
80578;SDS011;69939;52.402;6.608;2023-11-18T06:40:23;28.20;;;12.82;;
80578;SDS011;69939;52.402;6.608;2023-11-18T06:42:55;28.67;;;12.27;;
80578;SDS011;69939;52.402;6.608;2023-11-18T06:45:27;42.13;;;15.05;;
80578;SDS011;69939;52.402;6.608;2023-11-18T06:48:02;22.95;;;10.52;;
80578;SDS011;69939;52.402;6.608;2023-11-18T06:50:33;28.17;;;11.45;;
80578;SDS011;69939;52.402;6.608;2023-11-18T06:53:04;25.83;;;11.63;;
80578;SDS011;69939;52.402;6.608;2023-11-18T06:55:34;26.88;;;10.50;;
80578;SDS011;69939;52.402;6.608;2023-11-18T06:58:03;38.30;;;15.65;;
80578;SDS011;69939;52.402;6.608;2023-11-18T07:00:32;29.02;;;14.18;;
80578;SDS011;69939;52.402;6.608;2023-11-18T07:05:34;34.05;;;16.08;;
80578;SDS011;69939;52.402;6.608;2023-11-18T07:08:03;29.27;;;13.82;;
80578;SDS011;69939;52.402;6.608;2023-11-18T07:10:33;23.77;;;13.90;;
80578;SDS011;69939;52.402;6.608;2023-11-18T07:13:03;30.23;;;11.77;;
80578;SDS011;69939;52.402;6.608;2023-11-18T07:15:33;39.92;;;14.85;;
80578;SDS011;69939;52.402;6.608;2023-11-18T07:18:06;36.20;;;15.38;;
80578;SDS011;69939;52.402;6.608;2023-11-18T07:20:35;33.05;;;16.48;;
80578;SDS011;69939;52.402;6.608;2023-11-18T07:23:04;32.72;;;13.40;;
80578;SDS011;69939;52.402;6.608;2023-11-18T07:25:34;32.80;;;15.15;;
80578;SDS011;69939;52.402;6.608;2023-11-18T07:28:04;29.83;;;12.63;;
80578;SDS011;69939;52.402;6.608;2023-11-18T07:30:33;34.35;;;12.55;;
80578;SDS011;69939;52.402;6.608;2023-11-18T07:35:35;24.50;;;12.30;;
80578;SDS011;69939;52.402;6.608;2023-11-18T07:38:05;24.25;;;11.27;;
80578;SDS011;69939;52.402;6.608;2023-11-18T07:40:35;29.92;;;13.60;;
80578;SDS011;69939;52.402;6.608;2023-11-18T07:43:07;31.95;;;14.27;;
80578;SDS011;69939;52.402;6.608;2023-11-18T07:48:10;31.35;;;14.23;;
80578;SDS011;69939;52.402;6.608;2023-11-18T07:50:42;32.45;;;16.55;;
80578;SDS011;69939;52.402;6.608;2023-11-18T07:53:13;31.63;;;16.00;;
80578;SDS011;69939;52.402;6.608;2023-11-18T07:55:42;34.05;;;15.40;;
80578;SDS011;69939;52.402;6.608;2023-11-18T07:58:15;42.92;;;17.02;;
80578;SDS011;69939;52.402;6.608;2023-11-18T08:00:47;37.85;;;15.43;;
80578;SDS011;69939;52.402;6.608;2023-11-18T08:03:20;41.03;;;17.13;;
80578;SDS011;69939;52.402;6.608;2023-11-18T08:05:49;30.00;;;15.52;;
80578;SDS011;69939;52.402;6.608;2023-11-18T08:08:19;38.20;;;16.27;;
80578;SDS011;69939;52.402;6.608;2023-11-18T08:10:48;36.25;;;17.25;;
80578;SDS011;69939;52.402;6.608;2023-11-18T08:13:18;34.22;;;15.20;;
80578;SDS011;69939;52.402;6.608;2023-11-18T08:15:47;48.10;;;18.25;;
80578;SDS011;69939;52.402;6.608;2023-11-18T08:18:19;41.45;;;18.23;;
80578;SDS011;69939;52.402;6.608;2023-11-18T08:20:50;39.83;;;18.38;;
80578;SDS011;69939;52.402;6.608;2023-11-18T08:23:25;36.95;;;16.23;;
80578;SDS011;69939;52.402;6.608;2023-11-18T08:25:56;40.83;;;16.13;;
80578;SDS011;69939;52.402;6.608;2023-11-18T08:28:26;42.13;;;17.15;;
80578;SDS011;69939;52.402;6.608;2023-11-18T08:33:25;31.58;;;15.82;;
80578;SDS011;69939;52.402;6.608;2023-11-18T08:38:29;36.28;;;12.45;;
80578;SDS011;69939;52.402;6.608;2023-11-18T08:40:58;33.40;;;14.63;;
80578;SDS011;69939;52.402;6.608;2023-11-18T08:43:28;37.20;;;19.30;;
80578;SDS011;69939;52.402;6.608;2023-11-18T08:45:57;30.33;;;14.25;;
80578;SDS011;69939;52.402;6.608;2023-11-18T08:48:27;36.38;;;16.98;;
80578;SDS011;69939;52.402;6.608;2023-11-18T08:51:02;31.27;;;16.50;;
80578;SDS011;69939;52.402;6.608;2023-11-18T08:53:34;29.20;;;14.80;;
80578;SDS011;69939;52.402;6.608;2023-11-18T08:56:07;26.17;;;13.23;;
80578;SDS011;69939;52.402;6.608;2023-11-18T08:58:40;23.52;;;12.18;;
80578;SDS011;69939;52.402;6.608;2023-11-18T09:01:13;26.15;;;12.77;;
80578;SDS011;69939;52.402;6.608;2023-11-18T09:03:42;25.42;;;14.35;;
80578;SDS011;69939;52.402;6.608;2023-11-18T09:06:16;25.98;;;12.48;;
80578;SDS011;69939;52.402;6.608;2023-11-18T09:08:50;18.73;;;10.38;;
80578;SDS011;69939;52.402;6.608;2023-11-18T09:11:22;20.13;;;10.15;;
80578;SDS011;69939;52.402;6.608;2023-11-18T09:13:57;23.52;;;11.75;;
80578;SDS011;69939;52.402;6.608;2023-11-18T09:16:29;18.60;;;9.95;;
80578;SDS011;69939;52.402;6.608;2023-11-18T09:19:03;23.23;;;11.15;;
80578;SDS011;69939;52.402;6.608;2023-11-18T09:24:05;23.02;;;11.52;;
80578;SDS011;69939;52.402;6.608;2023-11-18T09:26:42;17.30;;;8.63;;
80578;SDS011;69939;52.402;6.608;2023-11-18T09:29:12;15.20;;;7.70;;
80578;SDS011;69939;52.402;6.608;2023-11-18T09:31:43;16.58;;;8.82;;
80578;SDS011;69939;52.402;6.608;2023-11-18T09:34:20;15.82;;;8.63;;
80578;SDS011;69939;52.402;6.608;2023-11-18T09:36:52;19.05;;;9.00;;
80578;SDS011;69939;52.402;6.608;2023-11-18T09:39:22;14.43;;;8.00;;
80578;SDS011;69939;52.402;6.608;2023-11-18T09:42:03;19.77;;;9.52;;
80578;SDS011;69939;52.402;6.608;2023-11-18T09:44:36;17.92;;;8.88;;
80578;SDS011;69939;52.402;6.608;2023-11-18T09:47:07;16.45;;;8.73;;
80578;SDS011;69939;52.402;6.608;2023-11-18T09:49:45;19.23;;;8.45;;
80578;SDS011;69939;52.402;6.608;2023-11-18T09:52:19;16.75;;;8.95;;
80578;SDS011;69939;52.402;6.608;2023-11-18T09:54:54;18.33;;;9.90;;
80578;SDS011;69939;52.402;6.608;2023-11-18T09:57:40;15.63;;;8.90;;
80578;SDS011;69939;52.402;6.608;2023-11-18T10:00:22;18.30;;;9.48;;
80578;SDS011;69939;52.402;6.608;2023-11-18T10:02:58;19.13;;;9.30;;
80578;SDS011;69939;52.402;6.608;2023-11-18T10:05:30;19.15;;;8.40;;
80578;SDS011;69939;52.402;6.608;2023-11-18T10:08:01;16.85;;;8.35;;
80578;SDS011;69939;52.402;6.608;2023-11-18T10:10:33;15.85;;;9.63;;
80578;SDS011;69939;52.402;6.608;2023-11-18T10:13:10;14.90;;;9.77;;
80578;SDS011;69939;52.402;6.608;2023-11-18T10:15:47;12.50;;;7.20;;
80578;SDS011;69939;52.402;6.608;2023-11-18T10:18:22;10.77;;;6.15;;
80578;SDS011;69939;52.402;6.608;2023-11-18T10:20:56;17.23;;;8.70;;
80578;SDS011;69939;52.402;6.608;2023-11-18T10:23:25;17.38;;;8.95;;
80578;SDS011;69939;52.402;6.608;2023-11-18T10:25:59;15.00;;;7.03;;
80578;SDS011;69939;52.402;6.608;2023-11-18T10:28:29;14.98;;;8.45;;
80578;SDS011;69939;52.402;6.608;2023-11-18T10:31:02;17.55;;;8.38;;
80578;SDS011;69939;52.402;6.608;2023-11-18T10:33:39;13.45;;;6.60;;
80578;SDS011;69939;52.402;6.608;2023-11-18T10:36:16;13.00;;;7.97;;
80578;SDS011;69939;52.402;6.608;2023-11-18T10:38:49;15.77;;;7.30;;
80578;SDS011;69939;52.402;6.608;2023-11-18T10:41:25;9.60;;;6.68;;
80578;SDS011;69939;52.402;6.608;2023-11-18T10:44:07;13.05;;;6.80;;
80578;SDS011;69939;52.402;6.608;2023-11-18T10:46:39;15.10;;;8.45;;
80578;SDS011;69939;52.402;6.608;2023-11-18T10:49:12;17.77;;;9.13;;
80578;SDS011;69939;52.402;6.608;2023-11-18T10:51:44;16.65;;;7.90;;
80578;SDS011;69939;52.402;6.608;2023-11-18T10:54:15;15.65;;;9.18;;
80578;SDS011;69939;52.402;6.608;2023-11-18T10:56:49;11.07;;;6.63;;
80578;SDS011;69939;52.402;6.608;2023-11-18T10:59:21;13.50;;;7.97;;
80578;SDS011;69939;52.402;6.608;2023-11-18T11:01:51;14.63;;;7.95;;
80578;SDS011;69939;52.402;6.608;2023-11-18T11:04:24;17.50;;;8.15;;
80578;SDS011;69939;52.402;6.608;2023-11-18T11:06:54;15.00;;;6.57;;
80578;SDS011;69939;52.402;6.608;2023-11-18T11:09:29;10.70;;;6.07;;
80578;SDS011;69939;52.402;6.608;2023-11-18T11:12:02;17.85;;;9.60;;
80578;SDS011;69939;52.402;6.608;2023-11-18T11:14:42;11.27;;;5.32;;
80578;SDS011;69939;52.402;6.608;2023-11-18T11:17:27;14.80;;;7.95;;
80578;SDS011;69939;52.402;6.608;2023-11-18T11:22:55;12.23;;;6.40;;
80578;SDS011;69939;52.402;6.608;2023-11-18T11:25:50;10.38;;;6.03;;
80578;SDS011;69939;52.402;6.608;2023-11-18T11:28:36;13.00;;;7.00;;
80578;SDS011;69939;52.402;6.608;2023-11-18T11:31:12;11.70;;;6.22;;
80578;SDS011;69939;52.402;6.608;2023-11-18T11:33:57;14.57;;;6.95;;
80578;SDS011;69939;52.402;6.608;2023-11-18T11:36:34;8.85;;;5.45;;
80578;SDS011;69939;52.402;6.608;2023-11-18T11:39:11;12.18;;;6.38;;
80578;SDS011;69939;52.402;6.608;2023-11-18T11:41:44;9.75;;;6.13;;
80578;SDS011;69939;52.402;6.608;2023-11-18T11:44:16;13.65;;;7.88;;
80578;SDS011;69939;52.402;6.608;2023-11-18T11:46:46;9.82;;;4.80;;
80578;SDS011;69939;52.402;6.608;2023-11-18T11:49:21;13.00;;;5.93;;
80578;SDS011;69939;52.402;6.608;2023-11-18T11:52:01;14.27;;;7.63;;
80578;SDS011;69939;52.402;6.608;2023-11-18T11:54:42;11.00;;;6.07;;
80578;SDS011;69939;52.402;6.608;2023-11-18T11:57:22;6.97;;;5.50;;
80578;SDS011;69939;52.402;6.608;2023-11-18T11:59:56;13.48;;;7.22;;
80578;SDS011;69939;52.402;6.608;2023-11-18T12:02:40;14.77;;;6.18;;
80578;SDS011;69939;52.402;6.608;2023-11-18T12:05:19;13.68;;;7.25;;
80578;SDS011;69939;52.402;6.608;2023-11-18T12:07:52;8.05;;;5.15;;
80578;SDS011;69939;52.402;6.608;2023-11-18T12:10:26;14.23;;;6.88;;
80578;SDS011;69939;52.402;6.608;2023-11-18T12:13:09;13.65;;;7.07;;
80578;SDS011;69939;52.402;6.608;2023-11-18T12:15:47;14.40;;;6.60;;
80578;SDS011;69939;52.402;6.608;2023-11-18T12:18:19;12.85;;;6.20;;
80578;SDS011;69939;52.402;6.608;2023-11-18T12:20:49;12.77;;;7.47;;
80578;SDS011;69939;52.402;6.608;2023-11-18T12:23:23;9.55;;;5.63;;
80578;SDS011;69939;52.402;6.608;2023-11-18T12:25:52;12.23;;;7.25;;
80578;SDS011;69939;52.402;6.608;2023-11-18T12:28:27;12.15;;;7.00;;
80578;SDS011;69939;52.402;6.608;2023-11-18T12:31:00;9.52;;;6.03;;
80578;SDS011;69939;52.402;6.608;2023-11-18T12:43:01;7.45;;;4.70;;
80578;SDS011;69939;52.402;6.608;2023-11-18T12:46:00;11.52;;;6.28;;
80578;SDS011;69939;52.402;6.608;2023-11-18T12:49:09;5.65;;;4.38;;
80578;SDS011;69939;52.402;6.608;2023-11-18T12:51:48;11.55;;;7.22;;
80578;SDS011;69939;52.402;6.608;2023-11-18T12:54:20;8.80;;;6.07;;
80578;SDS011;69939;52.402;6.608;2023-11-18T12:56:54;10.63;;;5.93;;
80578;SDS011;69939;52.402;6.608;2023-11-18T12:59:24;9.60;;;6.20;;
80578;SDS011;69939;52.402;6.608;2023-11-18T13:01:58;9.43;;;5.20;;
80578;SDS011;69939;52.402;6.608;2023-11-18T13:04:29;10.30;;;6.22;;
80578;SDS011;69939;52.402;6.608;2023-11-18T13:06:59;10.45;;;5.43;;
80578;SDS011;69939;52.402;6.608;2023-11-18T13:09:34;7.82;;;5.65;;
80578;SDS011;69939;52.402;6.608;2023-11-18T13:12:04;10.25;;;6.13;;
80578;SDS011;69939;52.402;6.608;2023-11-18T13:14:35;9.57;;;5.65;;
80578;SDS011;69939;52.402;6.608;2023-11-18T13:17:11;8.48;;;5.22;;
80578;SDS011;69939;52.402;6.608;2023-11-18T13:19:43;7.10;;;4.05;;
80578;SDS011;69939;52.402;6.608;2023-11-18T13:22:13;13.93;;;5.78;;
80578;SDS011;69939;52.402;6.608;2023-11-18T13:24:44;8.10;;;5.95;;
80578;SDS011;69939;52.402;6.608;2023-11-18T13:27:19;11.60;;;5.70;;
80578;SDS011;69939;52.402;6.608;2023-11-18T13:29:50;9.25;;;5.22;;
80578;SDS011;69939;52.402;6.608;2023-11-18T13:34:51;7.20;;;4.13;;
80578;SDS011;69939;52.402;6.608;2023-11-18T13:37:27;6.65;;;4.35;;
80578;SDS011;69939;52.402;6.608;2023-11-18T13:39:56;7.40;;;5.18;;
80578;SDS011;69939;52.402;6.608;2023-11-18T13:42:33;8.05;;;4.45;;
80578;SDS011;69939;52.402;6.608;2023-11-18T13:45:05;7.65;;;4.18;;
80578;SDS011;69939;52.402;6.608;2023-11-18T13:47:47;5.65;;;3.92;;
80578;SDS011;69939;52.402;6.608;2023-11-18T13:50:20;12.88;;;5.13;;
80578;SDS011;69939;52.402;6.608;2023-11-18T13:52:50;6.95;;;4.65;;
80578;SDS011;69939;52.402;6.608;2023-11-18T13:55:16;8.65;;;5.00;;
80578;SDS011;69939;52.402;6.608;2023-11-18T13:57:54;5.78;;;3.53;;
80578;SDS011;69939;52.402;6.608;2023-11-18T14:00:25;5.05;;;3.33;;
80578;SDS011;69939;52.402;6.608;2023-11-18T14:02:57;10.60;;;4.47;;
80578;SDS011;69939;52.402;6.608;2023-11-18T14:05:29;6.45;;;3.97;;
80578;SDS011;69939;52.402;6.608;2023-11-18T14:08:02;4.63;;;3.15;;
80578;SDS011;69939;52.402;6.608;2023-11-18T14:10:38;7.13;;;3.95;;
80578;SDS011;69939;52.402;6.608;2023-11-18T14:13:07;5.90;;;3.88;;
80578;SDS011;69939;52.402;6.608;2023-11-18T14:15:37;7.95;;;3.47;;
80578;SDS011;69939;52.402;6.608;2023-11-18T14:18:10;8.40;;;4.57;;
80578;SDS011;69939;52.402;6.608;2023-11-18T14:20:39;6.13;;;2.90;;
80578;SDS011;69939;52.402;6.608;2023-11-18T14:25:40;8.73;;;4.35;;
80578;SDS011;69939;52.402;6.608;2023-11-18T14:28:10;6.80;;;4.13;;
80578;SDS011;69939;52.402;6.608;2023-11-18T14:30:39;8.02;;;4.50;;
80578;SDS011;69939;52.402;6.608;2023-11-18T14:33:08;5.80;;;3.00;;
80578;SDS011;69939;52.402;6.608;2023-11-18T14:35:37;3.78;;;2.72;;
80578;SDS011;69939;52.402;6.608;2023-11-18T14:38:06;6.18;;;3.15;;
80578;SDS011;69939;52.402;6.608;2023-11-18T14:40:40;5.75;;;3.58;;
80578;SDS011;69939;52.402;6.608;2023-11-18T14:43:09;8.10;;;3.67;;
80578;SDS011;69939;52.402;6.608;2023-11-18T14:45:39;5.95;;;3.53;;
80578;SDS011;69939;52.402;6.608;2023-11-18T14:48:08;7.10;;;3.47;;
80578;SDS011;69939;52.402;6.608;2023-11-18T14:50:38;5.47;;;3.33;;
80578;SDS011;69939;52.402;6.608;2023-11-18T14:53:07;12.50;;;4.50;;
80578;SDS011;69939;52.402;6.608;2023-11-18T14:55:37;7.15;;;4.28;;
80578;SDS011;69939;52.402;6.608;2023-11-18T14:58:08;7.03;;;4.60;;
80578;SDS011;69939;52.402;6.608;2023-11-18T15:00:38;8.30;;;4.00;;
80578;SDS011;69939;52.402;6.608;2023-11-18T15:03:08;6.55;;;3.60;;
80578;SDS011;69939;52.402;6.608;2023-11-18T15:05:37;8.45;;;4.53;;
80578;SDS011;69939;52.402;6.608;2023-11-18T15:08:06;8.63;;;4.28;;
80578;SDS011;69939;52.402;6.608;2023-11-18T15:10:40;5.68;;;3.25;;
80578;SDS011;69939;52.402;6.608;2023-11-18T15:13:10;9.60;;;3.85;;
80578;SDS011;69939;52.402;6.608;2023-11-18T15:15:41;2.63;;;2.15;;
80578;SDS011;69939;52.402;6.608;2023-11-18T15:18:12;6.10;;;4.28;;
80578;SDS011;69939;52.402;6.608;2023-11-18T15:20:42;14.70;;;13.68;;
80578;SDS011;69939;52.402;6.608;2023-11-18T15:23:12;7.97;;;4.85;;
80578;SDS011;69939;52.402;6.608;2023-11-18T15:25:49;6.40;;;4.35;;
80578;SDS011;69939;52.402;6.608;2023-11-18T15:28:18;5.15;;;3.25;;
80578;SDS011;69939;52.402;6.608;2023-11-18T15:30:47;7.95;;;4.50;;
80578;SDS011;69939;52.402;6.608;2023-11-18T15:33:16;9.10;;;6.55;;
80578;SDS011;69939;52.402;6.608;2023-11-18T15:35:48;5.85;;;3.88;;
80578;SDS011;69939;52.402;6.608;2023-11-18T15:38:17;5.28;;;2.05;;
80578;SDS011;69939;52.402;6.608;2023-11-18T15:40:50;5.78;;;2.70;;
80578;SDS011;69939;52.402;6.608;2023-11-18T15:43:19;5.25;;;3.08;;
80578;SDS011;69939;52.402;6.608;2023-11-18T15:45:48;4.13;;;2.63;;
80578;SDS011;69939;52.402;6.608;2023-11-18T15:48:17;5.38;;;3.42;;
80578;SDS011;69939;52.402;6.608;2023-11-18T15:50:46;5.90;;;2.38;;
80578;SDS011;69939;52.402;6.608;2023-11-18T15:53:15;3.47;;;2.40;;